sensor_id;sensor_type;location;lat;lon;timestamp;pressure;altitude;pressure_sealevel;temperature;humidity
1480;BME280;732;51.698;4.886;2023-02-02T00:01:29;102282.06;;;5.74;100.00
1480;BME280;732;51.698;4.886;2023-02-02T00:03:58;102324.59;;;5.91;100.00
1480;BME280;732;51.698;4.886;2023-02-02T00:06:28;102287.28;;;5.55;100.00
1480;BME280;732;51.698;4.886;2023-02-02T00:09:00;102320.34;;;5.93;100.00
1480;BME280;732;51.698;4.886;2023-02-02T00:11:30;102295.59;;;5.65;100.00
1480;BME280;732;51.698;4.886;2023-02-02T00:13:59;102287.22;;;5.53;100.00
1480;BME280;732;51.698;4.886;2023-02-02T00:16:40;102294.94;;;5.50;100.00
1480;BME280;732;51.698;4.886;2023-02-02T00:19:14;102294.50;;;5.60;100.00
1480;BME280;732;51.698;4.886;2023-02-02T00:21:44;102315.13;;;5.74;100.00
1480;BME280;732;51.698;4.886;2023-02-02T00:24:15;102329.25;;;5.98;100.00
1480;BME280;732;51.698;4.886;2023-02-02T00:26:48;102340.38;;;5.94;100.00
1480;BME280;732;51.698;4.886;2023-02-02T00:29:20;102291.50;;;5.71;100.00
1480;BME280;732;51.698;4.886;2023-02-02T00:31:50;102335.09;;;5.92;100.00
1480;BME280;732;51.698;4.886;2023-02-02T00:34:19;102271.97;;;5.43;100.00
1480;BME280;732;51.698;4.886;2023-02-02T00:36:49;102314.22;;;5.73;100.00
1480;BME280;732;51.698;4.886;2023-02-02T00:39:19;102327.53;;;5.79;100.00
1480;BME280;732;51.698;4.886;2023-02-02T00:41:50;102306.47;;;5.55;100.00
1480;BME280;732;51.698;4.886;2023-02-02T00:44:18;102322.66;;;5.68;100.00
1480;BME280;732;51.698;4.886;2023-02-02T00:47:05;102349.00;;;5.91;100.00
1480;BME280;732;51.698;4.886;2023-02-02T00:49:33;102338.75;;;5.96;100.00
1480;BME280;732;51.698;4.886;2023-02-02T00:52:02;102339.97;;;5.85;100.00
1480;BME280;732;51.698;4.886;2023-02-02T00:54:30;102333.88;;;5.65;100.00
1480;BME280;732;51.698;4.886;2023-02-02T00:57:00;102356.97;;;5.94;100.00
1480;BME280;732;51.698;4.886;2023-02-02T00:59:29;102358.81;;;5.78;100.00
1480;BME280;732;51.698;4.886;2023-02-02T01:01:57;102321.69;;;5.65;100.00
1480;BME280;732;51.698;4.886;2023-02-02T01:04:26;102349.75;;;5.89;100.00
1480;BME280;732;51.698;4.886;2023-02-02T01:06:54;102347.81;;;5.85;100.00
1480;BME280;732;51.698;4.886;2023-02-02T01:09:22;102305.50;;;5.53;100.00
1480;BME280;732;51.698;4.886;2023-02-02T01:11:51;102342.47;;;5.82;100.00
1480;BME280;732;51.698;4.886;2023-02-02T01:14:20;102344.34;;;5.84;100.00
1480;BME280;732;51.698;4.886;2023-02-02T01:16:49;102345.81;;;5.79;100.00
1480;BME280;732;51.698;4.886;2023-02-02T01:19:17;102347.34;;;5.74;100.00
1480;BME280;732;51.698;4.886;2023-02-02T01:21:46;102346.78;;;5.81;100.00
1480;BME280;732;51.698;4.886;2023-02-02T01:24:14;102366.41;;;5.73;100.00
1480;BME280;732;51.698;4.886;2023-02-02T01:26:43;102352.56;;;5.74;100.00
1480;BME280;732;51.698;4.886;2023-02-02T01:29:11;102361.06;;;5.70;100.00
1480;BME280;732;51.698;4.886;2023-02-02T01:31:43;102364.22;;;5.63;100.00
1480;BME280;732;51.698;4.886;2023-02-02T01:34:11;102358.41;;;5.69;100.00
1480;BME280;732;51.698;4.886;2023-02-02T01:36:40;102341.50;;;5.80;100.00
1480;BME280;732;51.698;4.886;2023-02-02T01:39:08;102361.47;;;5.79;100.00
1480;BME280;732;51.698;4.886;2023-02-02T01:41:40;102359.13;;;5.66;100.00
1480;BME280;732;51.698;4.886;2023-02-02T01:47:40;102347.66;;;5.62;100.00
1480;BME280;732;51.698;4.886;2023-02-02T01:50:12;102321.28;;;5.76;100.00
1480;BME280;732;51.698;4.886;2023-02-02T01:52:46;102344.50;;;5.70;100.00
1480;BME280;732;51.698;4.886;2023-02-02T01:55:20;102325.75;;;5.59;100.00
1480;BME280;732;51.698;4.886;2023-02-02T01:57:57;102347.47;;;5.96;100.00
1480;BME280;732;51.698;4.886;2023-02-02T02:00:28;102357.63;;;5.90;100.00
1480;BME280;732;51.698;4.886;2023-02-02T02:03:02;102316.41;;;5.64;100.00
1480;BME280;732;51.698;4.886;2023-02-02T02:05:35;102347.13;;;5.70;100.00
1480;BME280;732;51.698;4.886;2023-02-02T02:08:12;102357.28;;;5.83;100.00
1480;BME280;732;51.698;4.886;2023-02-02T02:10:42;102315.19;;;5.56;100.00
1480;BME280;732;51.698;4.886;2023-02-02T02:13:11;102351.28;;;6.03;100.00
1480;BME280;732;51.698;4.886;2023-02-02T02:15:46;102318.50;;;5.71;100.00
1480;BME280;732;51.698;4.886;2023-02-02T02:18:44;102334.41;;;5.96;100.00
1480;BME280;732;51.698;4.886;2023-02-02T02:21:40;102329.69;;;5.69;100.00
1480;BME280;732;51.698;4.886;2023-02-02T02:25:13;102345.69;;;5.76;100.00
1480;BME280;732;51.698;4.886;2023-02-02T02:28:50;102335.53;;;5.82;100.00
1480;BME280;732;51.698;4.886;2023-02-02T02:31:58;102344.66;;;5.73;100.00
1480;BME280;732;51.698;4.886;2023-02-02T02:34:47;102345.19;;;5.65;100.00
1480;BME280;732;51.698;4.886;2023-02-02T02:37:29;102338.06;;;5.81;100.00
1480;BME280;732;51.698;4.886;2023-02-02T02:40:07;102355.13;;;5.92;100.00
1480;BME280;732;51.698;4.886;2023-02-02T02:42:45;102362.31;;;5.78;100.00
1480;BME280;732;51.698;4.886;2023-02-02T02:45:17;102365.69;;;5.76;100.00
1480;BME280;732;51.698;4.886;2023-02-02T02:47:47;102332.13;;;5.65;100.00
1480;BME280;732;51.698;4.886;2023-02-02T02:50:18;102329.81;;;5.72;100.00
1480;BME280;732;51.698;4.886;2023-02-02T02:52:50;102359.22;;;5.87;100.00
1480;BME280;732;51.698;4.886;2023-02-02T02:55:25;102344.13;;;5.80;100.00
1480;BME280;732;51.698;4.886;2023-02-02T02:58:06;102345.75;;;5.78;100.00
1480;BME280;732;51.698;4.886;2023-02-02T03:00:53;102354.34;;;5.75;100.00
1480;BME280;732;51.698;4.886;2023-02-02T03:03:41;102346.03;;;5.64;100.00
1480;BME280;732;51.698;4.886;2023-02-02T03:06:21;102312.63;;;5.38;100.00
1480;BME280;732;51.698;4.886;2023-02-02T03:08:56;102321.34;;;5.58;100.00
1480;BME280;732;51.698;4.886;2023-02-02T03:11:27;102342.16;;;5.56;100.00
1480;BME280;732;51.698;4.886;2023-02-02T03:13:56;102367.47;;;5.77;100.00
1480;BME280;732;51.698;4.886;2023-02-02T03:16:25;102365.25;;;5.67;100.00
1480;BME280;732;51.698;4.886;2023-02-02T03:18:55;102365.25;;;5.67;100.00
1480;BME280;732;51.698;4.886;2023-02-02T03:21:24;102360.59;;;5.59;100.00
1480;BME280;732;51.698;4.886;2023-02-02T03:23:52;102342.44;;;5.62;100.00
1480;BME280;732;51.698;4.886;2023-02-02T03:26:21;102339.03;;;5.63;100.00
1480;BME280;732;51.698;4.886;2023-02-02T03:28:50;102334.66;;;5.45;100.00
1480;BME280;732;51.698;4.886;2023-02-02T03:31:18;102358.47;;;5.70;100.00
1480;BME280;732;51.698;4.886;2023-02-02T03:33:49;102355.56;;;5.64;100.00
1480;BME280;732;51.698;4.886;2023-02-02T03:36:19;102316.50;;;5.46;100.00
1480;BME280;732;51.698;4.886;2023-02-02T03:38:47;102326.94;;;5.46;100.00
1480;BME280;732;51.698;4.886;2023-02-02T03:41:16;102363.91;;;5.75;100.00
1480;BME280;732;51.698;4.886;2023-02-02T03:43:44;102370.56;;;5.87;100.00
1480;BME280;732;51.698;4.886;2023-02-02T03:46:13;102372.69;;;5.96;100.00
1480;BME280;732;51.698;4.886;2023-02-02T03:48:42;102347.56;;;5.79;100.00
1480;BME280;732;51.698;4.886;2023-02-02T03:51:12;102373.91;;;5.85;100.00
1480;BME280;732;51.698;4.886;2023-02-02T03:53:43;102350.44;;;5.85;100.00
1480;BME280;732;51.698;4.886;2023-02-02T03:56:15;102374.81;;;5.85;100.00
1480;BME280;732;51.698;4.886;2023-02-02T03:58:45;102382.78;;;5.69;100.00
1480;BME280;732;51.698;4.886;2023-02-02T04:01:14;102364.50;;;5.50;100.00
1480;BME280;732;51.698;4.886;2023-02-02T04:03:43;102386.38;;;5.71;100.00
1480;BME280;732;51.698;4.886;2023-02-02T04:06:12;102379.13;;;5.65;100.00
1480;BME280;732;51.698;4.886;2023-02-02T04:08:42;102396.38;;;5.81;100.00
1480;BME280;732;51.698;4.886;2023-02-02T04:11:10;102379.97;;;5.84;100.00
1480;BME280;732;51.698;4.886;2023-02-02T04:13:39;102390.13;;;5.78;100.00
1480;BME280;732;51.698;4.886;2023-02-02T04:16:10;102379.41;;;5.72;100.00
1480;BME280;732;51.698;4.886;2023-02-02T04:18:39;102381.75;;;5.85;100.00
1480;BME280;732;51.698;4.886;2023-02-02T04:21:08;102397.22;;;5.80;100.00
1480;BME280;732;51.698;4.886;2023-02-02T04:23:36;102364.06;;;5.60;100.00
1480;BME280;732;51.698;4.886;2023-02-02T04:26:06;102396.59;;;5.67;100.00
1480;BME280;732;51.698;4.886;2023-02-02T04:28:35;102345.53;;;5.54;100.00
1480;BME280;732;51.698;4.886;2023-02-02T04:31:05;102388.78;;;5.86;100.00
1480;BME280;732;51.698;4.886;2023-02-02T04:33:34;102389.56;;;5.65;100.00
1480;BME280;732;51.698;4.886;2023-02-02T04:36:04;102379.00;;;5.62;100.00
1480;BME280;732;51.698;4.886;2023-02-02T04:38:33;102385.34;;;5.87;100.00
1480;BME280;732;51.698;4.886;2023-02-02T04:41:07;102392.94;;;5.63;100.00
1480;BME280;732;51.698;4.886;2023-02-02T04:43:36;102397.06;;;5.77;100.00
1480;BME280;732;51.698;4.886;2023-02-02T04:46:05;102385.66;;;5.75;100.00
1480;BME280;732;51.698;4.886;2023-02-02T04:48:34;102386.44;;;5.73;100.00
1480;BME280;732;51.698;4.886;2023-02-02T04:51:05;102359.91;;;5.63;100.00
1480;BME280;732;51.698;4.886;2023-02-02T04:53:33;102381.63;;;5.82;100.00
1480;BME280;732;51.698;4.886;2023-02-02T04:56:07;102384.28;;;5.64;100.00
1480;BME280;732;51.698;4.886;2023-02-02T04:58:36;102398.25;;;5.84;100.00
1480;BME280;732;51.698;4.886;2023-02-02T05:01:09;102394.41;;;5.95;100.00
1480;BME280;732;51.698;4.886;2023-02-02T05:03:38;102380.78;;;5.83;100.00
1480;BME280;732;51.698;4.886;2023-02-02T05:06:07;102404.38;;;5.84;100.00
1480;BME280;732;51.698;4.886;2023-02-02T05:08:36;102393.59;;;5.77;100.00
1480;BME280;732;51.698;4.886;2023-02-02T05:11:10;102395.38;;;5.60;100.00
1480;BME280;732;51.698;4.886;2023-02-02T05:13:39;102405.38;;;5.69;100.00
1480;BME280;732;51.698;4.886;2023-02-02T05:16:07;102407.81;;;5.83;100.00
1480;BME280;732;51.698;4.886;2023-02-02T05:18:36;102396.66;;;5.68;100.00
1480;BME280;732;51.698;4.886;2023-02-02T05:21:04;102376.53;;;5.85;100.00
1480;BME280;732;51.698;4.886;2023-02-02T05:23:33;102395.44;;;5.79;100.00
1480;BME280;732;51.698;4.886;2023-02-02T05:26:02;102401.50;;;5.60;100.00
1480;BME280;732;51.698;4.886;2023-02-02T05:28:32;102387.97;;;5.50;100.00
1480;BME280;732;51.698;4.886;2023-02-02T05:31:05;102416.13;;;5.57;100.00
1480;BME280;732;51.698;4.886;2023-02-02T05:33:34;102385.13;;;5.45;100.00
1480;BME280;732;51.698;4.886;2023-02-02T05:36:03;102417.03;;;5.57;100.00
1480;BME280;732;51.698;4.886;2023-02-02T05:38:31;102415.59;;;5.64;100.00
1480;BME280;732;51.698;4.886;2023-02-02T05:41:01;102407.63;;;5.61;100.00
1480;BME280;732;51.698;4.886;2023-02-02T05:43:32;102378.63;;;5.55;100.00
1480;BME280;732;51.698;4.886;2023-02-02T05:46:01;102413.50;;;5.75;100.00
1480;BME280;732;51.698;4.886;2023-02-02T05:48:30;102384.09;;;5.59;100.00
1480;BME280;732;51.698;4.886;2023-02-02T05:51:02;102407.34;;;5.55;100.00
1480;BME280;732;51.698;4.886;2023-02-02T05:53:32;102388.50;;;5.43;100.00
1480;BME280;732;51.698;4.886;2023-02-02T05:56:00;102395.44;;;5.25;100.00
1480;BME280;732;51.698;4.886;2023-02-02T05:58:29;102389.50;;;5.27;100.00
1480;BME280;732;51.698;4.886;2023-02-02T06:00:59;102408.19;;;5.36;100.00
1480;BME280;732;51.698;4.886;2023-02-02T06:03:28;102410.56;;;5.49;100.00
1480;BME280;732;51.698;4.886;2023-02-02T06:05:57;102395.75;;;5.48;100.00
1480;BME280;732;51.698;4.886;2023-02-02T06:08:25;102407.47;;;5.58;100.00
1480;BME280;732;51.698;4.886;2023-02-02T06:10:54;102414.56;;;5.60;100.00
1480;BME280;732;51.698;4.886;2023-02-02T06:13:22;102414.63;;;5.62;100.00
1480;BME280;732;51.698;4.886;2023-02-02T06:15:51;102413.88;;;5.64;100.00
1480;BME280;732;51.698;4.886;2023-02-02T06:18:21;102412.13;;;5.46;100.00
1480;BME280;732;51.698;4.886;2023-02-02T06:20:56;102388.06;;;5.34;100.00
1480;BME280;732;51.698;4.886;2023-02-02T06:23:25;102417.28;;;5.44;100.00
1480;BME280;732;51.698;4.886;2023-02-02T06:25:53;102421.84;;;5.31;100.00
1480;BME280;732;51.698;4.886;2023-02-02T06:28:22;102435.84;;;5.50;100.00
1480;BME280;732;51.698;4.886;2023-02-02T06:30:51;102437.34;;;5.28;100.00
1480;BME280;732;51.698;4.886;2023-02-02T06:33:21;102414.53;;;5.06;100.00
1480;BME280;732;51.698;4.886;2023-02-02T06:35:49;102447.38;;;5.38;100.00
1480;BME280;732;51.698;4.886;2023-02-02T06:38:17;102446.88;;;5.27;100.00
1480;BME280;732;51.698;4.886;2023-02-02T06:40:46;102458.06;;;5.42;100.00
1480;BME280;732;51.698;4.886;2023-02-02T06:43:15;102443.06;;;5.38;100.00
1480;BME280;732;51.698;4.886;2023-02-02T06:45:43;102450.66;;;5.34;100.00
1480;BME280;732;51.698;4.886;2023-02-02T06:48:11;102460.88;;;5.47;100.00
1480;BME280;732;51.698;4.886;2023-02-02T06:50:41;102461.72;;;5.46;100.00
1480;BME280;732;51.698;4.886;2023-02-02T06:53:10;102460.97;;;5.48;100.00
1480;BME280;732;51.698;4.886;2023-02-02T06:55:38;102472.81;;;5.59;100.00
1480;BME280;732;51.698;4.886;2023-02-02T06:58:07;102448.66;;;5.46;100.00
1480;BME280;732;51.698;4.886;2023-02-02T07:00:35;102463.41;;;5.45;100.00
1480;BME280;732;51.698;4.886;2023-02-02T07:03:04;102457.81;;;5.55;100.00
1480;BME280;732;51.698;4.886;2023-02-02T07:05:33;102471.91;;;5.59;100.00
1480;BME280;732;51.698;4.886;2023-02-02T07:08:03;102468.84;;;5.68;100.00
1480;BME280;732;51.698;4.886;2023-02-02T07:10:31;102416.38;;;5.26;100.00
1480;BME280;732;51.698;4.886;2023-02-02T07:13:20;102447.84;;;5.29;100.00
1480;BME280;732;51.698;4.886;2023-02-02T07:15:48;102470.34;;;5.27;100.00
1480;BME280;732;51.698;4.886;2023-02-02T07:18:17;102473.50;;;5.20;100.00
1480;BME280;732;51.698;4.886;2023-02-02T07:20:45;102464.84;;;5.21;100.00
1480;BME280;732;51.698;4.886;2023-02-02T07:23:15;102424.81;;;5.03;100.00
1480;BME280;732;51.698;4.886;2023-02-02T07:25:44;102473.25;;;5.16;100.00
1480;BME280;732;51.698;4.886;2023-02-02T07:28:12;102479.66;;;5.22;100.00
1480;BME280;732;51.698;4.886;2023-02-02T07:30:41;102438.25;;;4.95;100.00
1480;BME280;732;51.698;4.886;2023-02-02T07:33:11;102480.03;;;5.30;100.00
1480;BME280;732;51.698;4.886;2023-02-02T07:35:39;102483.25;;;5.42;100.00
1480;BME280;732;51.698;4.886;2023-02-02T07:38:08;102484.97;;;5.41;100.00
1480;BME280;732;51.698;4.886;2023-02-02T07:40:37;102486.75;;;5.25;100.00
1480;BME280;732;51.698;4.886;2023-02-02T07:43:06;102488.06;;;5.17;100.00
1480;BME280;732;51.698;4.886;2023-02-02T07:45:34;102485.34;;;5.31;100.00
1480;BME280;732;51.698;4.886;2023-02-02T07:48:04;102449.00;;;5.01;100.00
1480;BME280;732;51.698;4.886;2023-02-02T07:50:33;102453.50;;;5.03;100.00
1480;BME280;732;51.698;4.886;2023-02-02T07:53:01;102495.31;;;5.40;100.00
1480;BME280;732;51.698;4.886;2023-02-02T07:55:30;102443.13;;;5.05;100.00
1480;BME280;732;51.698;4.886;2023-02-02T07:58:00;102480.88;;;5.46;100.00
1480;BME280;732;51.698;4.886;2023-02-02T08:00:28;102512.31;;;5.49;100.00
1480;BME280;732;51.698;4.886;2023-02-02T08:02:57;102513.59;;;5.40;100.00
1480;BME280;732;51.698;4.886;2023-02-02T08:05:26;102520.69;;;5.42;100.00
1480;BME280;732;51.698;4.886;2023-02-02T08:07:55;102530.72;;;5.52;100.00
1480;BME280;732;51.698;4.886;2023-02-02T08:10:23;102479.88;;;5.27;100.00
1480;BME280;732;51.698;4.886;2023-02-02T08:12:52;102518.00;;;5.58;100.00
1480;BME280;732;51.698;4.886;2023-02-02T08:15:22;102509.34;;;5.59;100.00
1480;BME280;732;51.698;4.886;2023-02-02T08:17:53;102510.22;;;5.78;100.00
1480;BME280;732;51.698;4.886;2023-02-02T08:20:22;102518.56;;;5.88;100.00
1480;BME280;732;51.698;4.886;2023-02-02T08:22:52;102517.75;;;5.89;100.00
1480;BME280;732;51.698;4.886;2023-02-02T08:25:21;102488.75;;;5.65;100.00
1480;BME280;732;51.698;4.886;2023-02-02T08:27:52;102504.47;;;5.85;100.00
1480;BME280;732;51.698;4.886;2023-02-02T08:30:22;102515.88;;;5.87;100.00
1480;BME280;732;51.698;4.886;2023-02-02T08:32:51;102501.81;;;5.65;100.00
1480;BME280;732;51.698;4.886;2023-02-02T08:35:19;102519.16;;;5.83;100.00
1480;BME280;732;51.698;4.886;2023-02-02T08:37:48;102516.06;;;5.90;100.00
1480;BME280;732;51.698;4.886;2023-02-02T08:40:17;102528.94;;;6.04;100.00
1480;BME280;732;51.698;4.886;2023-02-02T08:42:46;102507.81;;;6.17;100.00
1480;BME280;732;51.698;4.886;2023-02-02T08:45:17;102533.69;;;6.30;100.00
1480;BME280;732;51.698;4.886;2023-02-02T08:48:07;102543.84;;;6.24;100.00
1480;BME280;732;51.698;4.886;2023-02-02T08:50:39;102497.38;;;6.00;100.00
1480;BME280;732;51.698;4.886;2023-02-02T08:53:07;102504.72;;;5.89;100.00
1480;BME280;732;51.698;4.886;2023-02-02T08:55:36;102527.44;;;6.27;100.00
1480;BME280;732;51.698;4.886;2023-02-02T08:58:05;102491.69;;;6.08;100.00
1480;BME280;732;51.698;4.886;2023-02-02T09:00:34;102525.75;;;6.10;100.00
1480;BME280;732;51.698;4.886;2023-02-02T09:03:03;102540.06;;;6.37;100.00
1480;BME280;732;51.698;4.886;2023-02-02T09:05:34;102559.44;;;6.40;100.00
1480;BME280;732;51.698;4.886;2023-02-02T09:08:04;102568.38;;;6.45;100.00
1480;BME280;732;51.698;4.886;2023-02-02T09:10:34;102504.13;;;6.12;100.00
1480;BME280;732;51.698;4.886;2023-02-02T09:13:03;102565.69;;;6.44;100.00
1480;BME280;732;51.698;4.886;2023-02-02T09:15:32;102560.72;;;6.69;100.00
1480;BME280;732;51.698;4.886;2023-02-02T09:18:00;102569.47;;;6.50;100.00
1480;BME280;732;51.698;4.886;2023-02-02T09:20:29;102553.38;;;6.61;100.00
1480;BME280;732;51.698;4.886;2023-02-02T09:22:59;102573.56;;;6.63;100.00
1480;BME280;732;51.698;4.886;2023-02-02T09:25:27;102576.00;;;6.60;100.00
1480;BME280;732;51.698;4.886;2023-02-02T09:27:56;102585.06;;;6.86;100.00
1480;BME280;732;51.698;4.886;2023-02-02T09:30:26;102575.53;;;6.88;100.00
1480;BME280;732;51.698;4.886;2023-02-02T09:32:54;102555.72;;;6.54;100.00
1480;BME280;732;51.698;4.886;2023-02-02T09:35:23;102557.44;;;6.73;100.00
1480;BME280;732;51.698;4.886;2023-02-02T09:37:52;102590.06;;;6.62;100.00
1480;BME280;732;51.698;4.886;2023-02-02T09:40:22;102598.22;;;6.50;100.00
1480;BME280;732;51.698;4.886;2023-02-02T09:43:02;102574.16;;;6.38;100.00
1480;BME280;732;51.698;4.886;2023-02-02T09:45:41;102613.16;;;6.53;100.00
1480;BME280;732;51.698;4.886;2023-02-02T09:48:23;102607.78;;;6.69;100.00
1480;BME280;732;51.698;4.886;2023-02-02T09:50:57;102579.31;;;6.56;100.00
1480;BME280;732;51.698;4.886;2023-02-02T09:53:39;102621.28;;;6.59;100.00
1480;BME280;732;51.698;4.886;2023-02-02T09:56:26;102620.78;;;6.85;100.00
1480;BME280;732;51.698;4.886;2023-02-02T09:59:00;102604.22;;;6.86;100.00
1480;BME280;732;51.698;4.886;2023-02-02T10:01:47;102605.25;;;6.90;100.00
1480;BME280;732;51.698;4.886;2023-02-02T10:04:21;102583.81;;;6.97;100.00
1480;BME280;732;51.698;4.886;2023-02-02T10:06:53;102610.38;;;6.87;100.00
1480;BME280;732;51.698;4.886;2023-02-02T10:09:32;102611.34;;;6.89;100.00
1480;BME280;732;51.698;4.886;2023-02-02T10:12:23;102581.13;;;6.76;100.00
1480;BME280;732;51.698;4.886;2023-02-02T10:14:59;102607.06;;;6.72;100.00
1480;BME280;732;51.698;4.886;2023-02-02T10:17:45;102577.78;;;6.80;100.00
1480;BME280;732;51.698;4.886;2023-02-02T10:20:40;102589.56;;;7.09;100.00
1480;BME280;732;51.698;4.886;2023-02-02T10:23:24;102604.22;;;7.24;100.00
1480;BME280;732;51.698;4.886;2023-02-02T10:25:57;102600.63;;;7.22;100.00
1480;BME280;732;51.698;4.886;2023-02-02T10:28:43;102605.53;;;7.15;100.00
1480;BME280;732;51.698;4.886;2023-02-02T10:31:23;102622.69;;;6.89;100.00
1480;BME280;732;51.698;4.886;2023-02-02T10:34:07;102607.69;;;7.04;100.00
1480;BME280;732;51.698;4.886;2023-02-02T10:36:54;102610.25;;;7.23;100.00
1480;BME280;732;51.698;4.886;2023-02-02T10:39:35;102623.25;;;7.41;100.00
1480;BME280;732;51.698;4.886;2023-02-02T10:42:18;102622.13;;;7.34;100.00
1480;BME280;732;51.698;4.886;2023-02-02T10:44:55;102626.13;;;7.26;100.00
1480;BME280;732;51.698;4.886;2023-02-02T10:47:29;102596.09;;;6.99;100.00
1480;BME280;732;51.698;4.886;2023-02-02T10:50:14;102592.63;;;6.99;100.00
1480;BME280;732;51.698;4.886;2023-02-02T10:52:47;102626.69;;;7.19;100.00
1480;BME280;732;51.698;4.886;2023-02-02T10:55:26;102625.75;;;7.38;100.00
1480;BME280;732;51.698;4.886;2023-02-02T10:58:07;102616.59;;;7.47;100.00
1480;BME280;732;51.698;4.886;2023-02-02T11:00:46;102613.25;;;7.12;100.00
1480;BME280;732;51.698;4.886;2023-02-02T11:03:19;102615.59;;;7.25;100.00
1480;BME280;732;51.698;4.886;2023-02-02T11:05:57;102625.25;;;7.46;100.00
1480;BME280;732;51.698;4.886;2023-02-02T11:08:46;102630.00;;;7.55;100.00
1480;BME280;732;51.698;4.886;2023-02-02T11:11:21;102607.75;;;7.45;100.00
1480;BME280;732;51.698;4.886;2023-02-02T11:13:54;102615.56;;;7.65;100.00
1480;BME280;732;51.698;4.886;2023-02-02T11:16:28;102621.66;;;7.84;100.00
1480;BME280;732;51.698;4.886;2023-02-02T11:19:26;102602.22;;;7.59;100.00
1480;BME280;732;51.698;4.886;2023-02-02T11:21:57;102608.22;;;7.56;100.00
1480;BME280;732;51.698;4.886;2023-02-02T11:24:28;102622.47;;;7.63;100.00
1480;BME280;732;51.698;4.886;2023-02-02T11:27:00;102606.78;;;7.23;100.00
1480;BME280;732;51.698;4.886;2023-02-02T11:29:33;102579.94;;;7.08;100.00
1480;BME280;732;51.698;4.886;2023-02-02T11:32:28;102625.84;;;7.20;100.00
1480;BME280;732;51.698;4.886;2023-02-02T11:35:18;102629.41;;;7.22;100.00
1480;BME280;732;51.698;4.886;2023-02-02T11:37:58;102584.16;;;7.04;100.00
1480;BME280;732;51.698;4.886;2023-02-02T11:40:33;102599.00;;;7.05;100.00
1480;BME280;732;51.698;4.886;2023-02-02T11:43:12;102612.66;;;6.98;100.00
1480;BME280;732;51.698;4.886;2023-02-02T11:45:44;102621.53;;;7.02;100.00
1480;BME280;732;51.698;4.886;2023-02-02T11:48:21;102638.19;;;7.04;100.00
1480;BME280;732;51.698;4.886;2023-02-02T11:50:52;102610.94;;;6.99;100.00
1480;BME280;732;51.698;4.886;2023-02-02T11:53:24;102616.75;;;7.12;100.00
1480;BME280;732;51.698;4.886;2023-02-02T11:55:57;102565.69;;;6.82;100.00
1480;BME280;732;51.698;4.886;2023-02-02T11:58:29;102576.72;;;6.75;100.00
1480;BME280;732;51.698;4.886;2023-02-02T12:01:01;102617.72;;;6.95;100.00
1480;BME280;732;51.698;4.886;2023-02-02T12:03:33;102611.47;;;7.11;100.00
1480;BME280;732;51.698;4.886;2023-02-02T12:06:18;102633.00;;;7.05;100.00
1480;BME280;732;51.698;4.886;2023-02-02T12:08:59;102588.63;;;6.69;100.00
1480;BME280;732;51.698;4.886;2023-02-02T12:11:39;102597.59;;;6.56;100.00
1480;BME280;732;51.698;4.886;2023-02-02T12:14:27;102566.81;;;6.68;100.00
1480;BME280;732;51.698;4.886;2023-02-02T12:17:11;102614.81;;;6.51;100.00
1480;BME280;732;51.698;4.886;2023-02-02T12:19:56;102640.81;;;6.67;100.00
1480;BME280;732;51.698;4.886;2023-02-02T12:22:43;102644.28;;;6.66;100.00
1480;BME280;732;51.698;4.886;2023-02-02T12:25:51;102644.22;;;6.47;100.00
1480;BME280;732;51.698;4.886;2023-02-02T12:28:42;102646.25;;;6.52;100.00
1480;BME280;732;51.698;4.886;2023-02-02T12:31:23;102645.75;;;6.42;100.00
1480;BME280;732;51.698;4.886;2023-02-02T12:34:06;102651.16;;;6.64;100.00
1480;BME280;732;51.698;4.886;2023-02-02T12:36:49;102649.88;;;6.56;100.00
1480;BME280;732;51.698;4.886;2023-02-02T12:39:31;102635.59;;;6.48;100.00
1480;BME280;732;51.698;4.886;2023-02-02T12:42:39;102655.78;;;6.70;100.00
1480;BME280;732;51.698;4.886;2023-02-02T12:45:45;102658.19;;;6.65;100.00
1480;BME280;732;51.698;4.886;2023-02-02T12:48:34;102659.91;;;6.65;100.00
1480;BME280;732;51.698;4.886;2023-02-02T12:51:18;102649.50;;;6.29;100.00
1480;BME280;732;51.698;4.886;2023-02-02T12:54:23;102660.81;;;6.47;100.00
1480;BME280;732;51.698;4.886;2023-02-02T12:57:06;102647.22;;;6.54;100.00
1480;BME280;732;51.698;4.886;2023-02-02T13:00:09;102644.53;;;6.53;100.00
1480;BME280;732;51.698;4.886;2023-02-02T13:02:48;102641.63;;;6.47;100.00
1480;BME280;732;51.698;4.886;2023-02-02T13:05:42;102634.81;;;6.50;100.00
1480;BME280;732;51.698;4.886;2023-02-02T13:08:18;102604.53;;;6.36;100.00
1480;BME280;732;51.698;4.886;2023-02-02T13:10:53;102586.06;;;6.14;100.00
1480;BME280;732;51.698;4.886;2023-02-02T13:13:25;102627.38;;;6.23;100.00
1480;BME280;732;51.698;4.886;2023-02-02T13:16:07;102640.66;;;6.45;100.00
1480;BME280;732;51.698;4.886;2023-02-02T13:18:40;102611.69;;;6.40;100.00
1480;BME280;732;51.698;4.886;2023-02-02T13:21:12;102616.75;;;6.37;100.00
1480;BME280;732;51.698;4.886;2023-02-02T13:23:48;102615.41;;;6.45;100.00
1480;BME280;732;51.698;4.886;2023-02-02T13:26:21;102612.53;;;6.58;100.00
1480;BME280;732;51.698;4.886;2023-02-02T13:28:57;102606.06;;;6.50;100.00
1480;BME280;732;51.698;4.886;2023-02-02T13:31:34;102625.84;;;6.63;100.00
1480;BME280;732;51.698;4.886;2023-02-02T13:34:13;102618.31;;;6.51;100.00
1480;BME280;732;51.698;4.886;2023-02-02T13:36:48;102604.13;;;6.46;100.00
1480;BME280;732;51.698;4.886;2023-02-02T13:39:23;102626.47;;;6.40;100.00
1480;BME280;732;51.698;4.886;2023-02-02T13:41:55;102632.00;;;6.46;100.00
1480;BME280;732;51.698;4.886;2023-02-02T13:44:28;102631.88;;;6.62;100.00
1480;BME280;732;51.698;4.886;2023-02-02T13:47:05;102628.50;;;6.28;100.00
1480;BME280;732;51.698;4.886;2023-02-02T13:49:40;102625.72;;;6.07;100.00
1480;BME280;732;51.698;4.886;2023-02-02T13:52:38;102637.06;;;6.08;100.00
1480;BME280;732;51.698;4.886;2023-02-02T13:55:39;102631.44;;;5.83;100.00
1480;BME280;732;51.698;4.886;2023-02-02T13:58:32;102645.72;;;5.89;100.00
1480;BME280;732;51.698;4.886;2023-02-02T14:01:09;102643.69;;;5.84;100.00
1480;BME280;732;51.698;4.886;2023-02-02T14:03:40;102647.91;;;5.64;100.00